sensor_id;sensor_type;location;lat;lon;timestamp;P1;durP1;ratioP1;P2;durP2;ratioP2
37297;SDS011;30517;51.932;4.278;2023-07-20T00:00:55;2.85;;;1.10;;
37297;SDS011;30517;51.932;4.278;2023-07-20T00:03:36;2.92;;;0.98;;
37297;SDS011;30517;51.932;4.278;2023-07-20T00:06:17;3.08;;;1.20;;
37297;SDS011;30517;51.932;4.278;2023-07-20T00:08:58;2.20;;;1.20;;
37297;SDS011;30517;51.932;4.278;2023-07-20T00:11:39;2.78;;;1.38;;
37297;SDS011;30517;51.932;4.278;2023-07-20T00:14:22;4.03;;;1.38;;
37297;SDS011;30517;51.932;4.278;2023-07-20T00:17:03;2.88;;;1.30;;
37297;SDS011;30517;51.932;4.278;2023-07-20T00:19:44;3.03;;;1.50;;
37297;SDS011;30517;51.932;4.278;2023-07-20T00:22:25;3.28;;;1.15;;
37297;SDS011;30517;51.932;4.278;2023-07-20T00:25:05;3.13;;;1.25;;
37297;SDS011;30517;51.932;4.278;2023-07-20T00:27:46;2.25;;;1.23;;
37297;SDS011;30517;51.932;4.278;2023-07-20T00:30:27;3.80;;;1.52;;
37297;SDS011;30517;51.932;4.278;2023-07-20T00:33:11;3.17;;;1.20;;
37297;SDS011;30517;51.932;4.278;2023-07-20T00:35:53;2.95;;;1.38;;
37297;SDS011;30517;51.932;4.278;2023-07-20T00:38:33;3.72;;;1.35;;
37297;SDS011;30517;51.932;4.278;2023-07-20T00:41:14;2.97;;;1.17;;
37297;SDS011;30517;51.932;4.278;2023-07-20T00:43:55;3.20;;;1.40;;
37297;SDS011;30517;51.932;4.278;2023-07-20T00:46:36;4.18;;;1.35;;
37297;SDS011;30517;51.932;4.278;2023-07-20T00:49:17;3.55;;;1.52;;
37297;SDS011;30517;51.932;4.278;2023-07-20T00:52:01;3.00;;;1.42;;
37297;SDS011;30517;51.932;4.278;2023-07-20T00:54:43;2.20;;;1.17;;
37297;SDS011;30517;51.932;4.278;2023-07-20T00:57:25;3.05;;;1.15;;
37297;SDS011;30517;51.932;4.278;2023-07-20T01:00:06;2.05;;;1.02;;
37297;SDS011;30517;51.932;4.278;2023-07-20T01:02:47;2.17;;;1.10;;
37297;SDS011;30517;51.932;4.278;2023-07-20T01:05:34;2.28;;;1.10;;
37297;SDS011;30517;51.932;4.278;2023-07-20T01:11:10;1.95;;;1.00;;
37297;SDS011;30517;51.932;4.278;2023-07-20T01:14:10;2.42;;;1.20;;
37297;SDS011;30517;51.932;4.278;2023-07-20T01:16:52;2.58;;;1.13;;
37297;SDS011;30517;51.932;4.278;2023-07-20T01:19:33;6.10;;;1.20;;
37297;SDS011;30517;51.932;4.278;2023-07-20T01:33:46;1.77;;;0.90;;
37297;SDS011;30517;51.932;4.278;2023-07-20T01:36:33;1.75;;;0.90;;
37297;SDS011;30517;51.932;4.278;2023-07-20T01:39:15;2.13;;;1.02;;
37297;SDS011;30517;51.932;4.278;2023-07-20T01:41:57;1.80;;;0.90;;
37297;SDS011;30517;51.932;4.278;2023-07-20T01:44:38;1.92;;;1.00;;
37297;SDS011;30517;51.932;4.278;2023-07-20T01:47:19;1.27;;;0.63;;
37297;SDS011;30517;51.932;4.278;2023-07-20T01:50:00;1.35;;;0.70;;
37297;SDS011;30517;51.932;4.278;2023-07-20T01:52:40;1.50;;;0.60;;
37297;SDS011;30517;51.932;4.278;2023-07-20T01:55:21;2.25;;;0.90;;
37297;SDS011;30517;51.932;4.278;2023-07-20T01:58:02;1.00;;;0.68;;
37297;SDS011;30517;51.932;4.278;2023-07-20T02:00:43;1.92;;;0.70;;
37297;SDS011;30517;51.932;4.278;2023-07-20T02:03:24;1.83;;;0.82;;
37297;SDS011;30517;51.932;4.278;2023-07-20T02:06:06;0.65;;;0.50;;
37297;SDS011;30517;51.932;4.278;2023-07-20T02:08:47;2.00;;;0.88;;
37297;SDS011;30517;51.932;4.278;2023-07-20T02:11:28;1.48;;;0.70;;
37297;SDS011;30517;51.932;4.278;2023-07-20T02:14:09;1.70;;;0.60;;
37297;SDS011;30517;51.932;4.278;2023-07-20T02:16:49;1.38;;;0.80;;
37297;SDS011;30517;51.932;4.278;2023-07-20T02:19:37;1.75;;;0.75;;
37297;SDS011;30517;51.932;4.278;2023-07-20T02:22:18;1.30;;;0.60;;
37297;SDS011;30517;51.932;4.278;2023-07-20T02:24:59;1.67;;;0.65;;
37297;SDS011;30517;51.932;4.278;2023-07-20T02:27:40;1.40;;;0.60;;
37297;SDS011;30517;51.932;4.278;2023-07-20T02:30:21;1.83;;;0.82;;
37297;SDS011;30517;51.932;4.278;2023-07-20T02:33:02;1.35;;;0.60;;
37297;SDS011;30517;51.932;4.278;2023-07-20T02:35:45;1.08;;;0.50;;
37297;SDS011;30517;51.932;4.278;2023-07-20T02:38:26;0.65;;;0.52;;
37297;SDS011;30517;51.932;4.278;2023-07-20T02:41:06;1.33;;;0.57;;
37297;SDS011;30517;51.932;4.278;2023-07-20T02:43:47;0.90;;;0.60;;
37297;SDS011;30517;51.932;4.278;2023-07-20T02:46:28;1.40;;;0.70;;
37297;SDS011;30517;51.932;4.278;2023-07-20T02:49:10;1.25;;;0.50;;
37297;SDS011;30517;51.932;4.278;2023-07-20T02:51:51;1.45;;;0.50;;
37297;SDS011;30517;51.932;4.278;2023-07-20T02:54:31;1.20;;;0.65;;
37297;SDS011;30517;51.932;4.278;2023-07-20T02:57:12;1.10;;;0.60;;
37297;SDS011;30517;51.932;4.278;2023-07-20T02:59:53;0.80;;;0.52;;
37297;SDS011;30517;51.932;4.278;2023-07-20T03:02:35;0.82;;;0.40;;
37297;SDS011;30517;51.932;4.278;2023-07-20T03:05:16;0.90;;;0.52;;
37297;SDS011;30517;51.932;4.278;2023-07-20T03:07:56;1.30;;;0.52;;
37297;SDS011;30517;51.932;4.278;2023-07-20T03:10:43;0.73;;;0.50;;
37297;SDS011;30517;51.932;4.278;2023-07-20T03:13:23;0.60;;;0.40;;
37297;SDS011;30517;51.932;4.278;2023-07-20T03:16:04;1.00;;;0.43;;
37297;SDS011;30517;51.932;4.278;2023-07-20T03:18:45;0.93;;;0.50;;
37297;SDS011;30517;51.932;4.278;2023-07-20T03:21:26;0.75;;;0.35;;
37297;SDS011;30517;51.932;4.278;2023-07-20T03:24:08;0.85;;;0.40;;
37297;SDS011;30517;51.932;4.278;2023-07-20T03:26:49;1.10;;;0.55;;
37297;SDS011;30517;51.932;4.278;2023-07-20T03:29:31;0.35;;;0.35;;
37297;SDS011;30517;51.932;4.278;2023-07-20T03:32:13;0.77;;;0.40;;
37297;SDS011;30517;51.932;4.278;2023-07-20T03:34:53;1.50;;;0.47;;
37297;SDS011;30517;51.932;4.278;2023-07-20T03:37:34;0.85;;;0.57;;
37297;SDS011;30517;51.932;4.278;2023-07-20T03:40:16;1.10;;;0.43;;
37297;SDS011;30517;51.932;4.278;2023-07-20T03:42:57;1.02;;;0.50;;
37297;SDS011;30517;51.932;4.278;2023-07-20T03:45:38;0.45;;;0.32;;
37297;SDS011;30517;51.932;4.278;2023-07-20T03:48:20;0.77;;;0.40;;
37297;SDS011;30517;51.932;4.278;2023-07-20T03:51:02;0.50;;;0.30;;
37297;SDS011;30517;51.932;4.278;2023-07-20T03:53:43;1.10;;;0.50;;
37297;SDS011;30517;51.932;4.278;2023-07-20T03:56:24;0.70;;;0.50;;
37297;SDS011;30517;51.932;4.278;2023-07-20T03:59:04;0.45;;;0.30;;
37297;SDS011;30517;51.932;4.278;2023-07-20T04:01:45;0.60;;;0.40;;
37297;SDS011;30517;51.932;4.278;2023-07-20T04:04:26;1.02;;;0.50;;
37297;SDS011;30517;51.932;4.278;2023-07-20T04:07:08;0.50;;;0.40;;
37297;SDS011;30517;51.932;4.278;2023-07-20T04:09:49;0.93;;;0.50;;
37297;SDS011;30517;51.932;4.278;2023-07-20T04:12:30;0.80;;;0.40;;
37297;SDS011;30517;51.932;4.278;2023-07-20T04:15:11;1.00;;;0.50;;
37297;SDS011;30517;51.932;4.278;2023-07-20T04:17:52;0.93;;;0.50;;
37297;SDS011;30517;51.932;4.278;2023-07-20T04:20:32;0.63;;;0.32;;
37297;SDS011;30517;51.932;4.278;2023-07-20T04:23:13;0.45;;;0.40;;
37297;SDS011;30517;51.932;4.278;2023-07-20T04:25:54;0.35;;;0.30;;
37297;SDS011;30517;51.932;4.278;2023-07-20T04:28:35;1.10;;;0.50;;
37297;SDS011;30517;51.932;4.278;2023-07-20T04:31:16;1.08;;;0.43;;
37297;SDS011;30517;51.932;4.278;2023-07-20T04:33:56;0.43;;;0.40;;
37297;SDS011;30517;51.932;4.278;2023-07-20T04:36:37;0.30;;;0.30;;
37297;SDS011;30517;51.932;4.278;2023-07-20T04:39:18;0.85;;;0.50;;
37297;SDS011;30517;51.932;4.278;2023-07-20T04:41:59;1.02;;;0.52;;
37297;SDS011;30517;51.932;4.278;2023-07-20T04:44:40;1.30;;;0.60;;
37297;SDS011;30517;51.932;4.278;2023-07-20T04:47:23;0.73;;;0.38;;
37297;SDS011;30517;51.932;4.278;2023-07-20T04:50:04;0.50;;;0.40;;
37297;SDS011;30517;51.932;4.278;2023-07-20T04:52:45;0.30;;;0.30;;
37297;SDS011;30517;51.932;4.278;2023-07-20T04:55:28;1.23;;;0.65;;
37297;SDS011;30517;51.932;4.278;2023-07-20T04:58:09;0.70;;;0.40;;
37297;SDS011;30517;51.932;4.278;2023-07-20T05:00:50;1.00;;;0.40;;
37297;SDS011;30517;51.932;4.278;2023-07-20T05:03:31;0.77;;;0.40;;
37297;SDS011;30517;51.932;4.278;2023-07-20T05:06:12;0.95;;;0.50;;
37297;SDS011;30517;51.932;4.278;2023-07-20T05:08:53;0.40;;;0.40;;
37297;SDS011;30517;51.932;4.278;2023-07-20T05:11:34;2.17;;;0.57;;
37297;SDS011;30517;51.932;4.278;2023-07-20T05:14:15;0.85;;;0.50;;
37297;SDS011;30517;51.932;4.278;2023-07-20T05:16:55;1.17;;;0.60;;
37297;SDS011;30517;51.932;4.278;2023-07-20T05:19:36;0.50;;;0.38;;
37297;SDS011;30517;51.932;4.278;2023-07-20T05:22:17;0.40;;;0.40;;
37297;SDS011;30517;51.932;4.278;2023-07-20T05:24:58;2.58;;;0.60;;
37297;SDS011;30517;51.932;4.278;2023-07-20T05:27:39;0.45;;;0.40;;
37297;SDS011;30517;51.932;4.278;2023-07-20T05:30:23;0.80;;;0.55;;
37297;SDS011;30517;51.932;4.278;2023-07-20T05:33:04;1.15;;;0.50;;
37297;SDS011;30517;51.932;4.278;2023-07-20T05:35:44;0.60;;;0.40;;
37297;SDS011;30517;51.932;4.278;2023-07-20T05:38:25;0.93;;;0.47;;
37297;SDS011;30517;51.932;4.278;2023-07-20T05:41:06;0.60;;;0.47;;
37297;SDS011;30517;51.932;4.278;2023-07-20T05:46:31;1.60;;;0.60;;
37297;SDS011;30517;51.932;4.278;2023-07-20T05:49:12;1.55;;;0.50;;
37297;SDS011;30517;51.932;4.278;2023-07-20T05:51:52;0.63;;;0.50;;
37297;SDS011;30517;51.932;4.278;2023-07-20T05:54:33;1.52;;;0.50;;
37297;SDS011;30517;51.932;4.278;2023-07-20T05:57:14;1.20;;;0.75;;
37297;SDS011;30517;51.932;4.278;2023-07-20T05:59:55;1.58;;;0.63;;
37297;SDS011;30517;51.932;4.278;2023-07-20T06:02:35;0.85;;;0.57;;
37297;SDS011;30517;51.932;4.278;2023-07-20T06:05:16;1.17;;;0.50;;
37297;SDS011;30517;51.932;4.278;2023-07-20T06:07:57;1.52;;;0.60;;
37297;SDS011;30517;51.932;4.278;2023-07-20T06:10:40;1.55;;;0.70;;
37297;SDS011;30517;51.932;4.278;2023-07-20T06:13:21;1.02;;;0.70;;
37297;SDS011;30517;51.932;4.278;2023-07-20T06:16:02;1.05;;;0.50;;
37297;SDS011;30517;51.932;4.278;2023-07-20T06:18:43;1.15;;;0.50;;
37297;SDS011;30517;51.932;4.278;2023-07-20T06:21:25;2.30;;;1.00;;
37297;SDS011;30517;51.932;4.278;2023-07-20T06:24:06;0.98;;;0.50;;
37297;SDS011;30517;51.932;4.278;2023-07-20T06:26:47;0.50;;;0.40;;
37297;SDS011;30517;51.932;4.278;2023-07-20T06:29:28;1.13;;;0.52;;
37297;SDS011;30517;51.932;4.278;2023-07-20T06:32:09;0.63;;;0.50;;
37297;SDS011;30517;51.932;4.278;2023-07-20T06:34:53;0.60;;;0.40;;
37297;SDS011;30517;51.932;4.278;2023-07-20T06:37:34;1.00;;;0.60;;
37297;SDS011;30517;51.932;4.278;2023-07-20T06:40:15;1.65;;;0.65;;
37297;SDS011;30517;51.932;4.278;2023-07-20T06:42:56;1.33;;;0.70;;
37297;SDS011;30517;51.932;4.278;2023-07-20T06:45:37;0.93;;;0.52;;
37297;SDS011;30517;51.932;4.278;2023-07-20T06:48:18;1.75;;;0.70;;
37297;SDS011;30517;51.932;4.278;2023-07-20T06:50:59;1.02;;;0.50;;
37297;SDS011;30517;51.932;4.278;2023-07-20T06:53:40;0.82;;;0.40;;
37297;SDS011;30517;51.932;4.278;2023-07-20T06:56:21;1.75;;;0.50;;
37297;SDS011;30517;51.932;4.278;2023-07-20T06:59:02;0.77;;;0.47;;
37297;SDS011;30517;51.932;4.278;2023-07-20T07:01:43;0.77;;;0.50;;
37297;SDS011;30517;51.932;4.278;2023-07-20T07:04:24;0.80;;;0.50;;
37297;SDS011;30517;51.932;4.278;2023-07-20T07:07:04;1.77;;;0.73;;
37297;SDS011;30517;51.932;4.278;2023-07-20T07:09:45;1.08;;;0.55;;
37297;SDS011;30517;51.932;4.278;2023-07-20T07:12:26;1.58;;;0.70;;
37297;SDS011;30517;51.932;4.278;2023-07-20T07:15:07;0.85;;;0.57;;
37297;SDS011;30517;51.932;4.278;2023-07-20T07:17:50;0.85;;;0.52;;
37297;SDS011;30517;51.932;4.278;2023-07-20T07:20:31;1.50;;;0.70;;
37297;SDS011;30517;51.932;4.278;2023-07-20T07:23:12;1.42;;;0.90;;
37297;SDS011;30517;51.932;4.278;2023-07-20T07:25:53;0.80;;;0.50;;
37297;SDS011;30517;51.932;4.278;2023-07-20T07:28:34;1.33;;;0.43;;
37297;SDS011;30517;51.932;4.278;2023-07-20T07:31:15;1.45;;;0.65;;
37297;SDS011;30517;51.932;4.278;2023-07-20T07:33:56;1.10;;;0.40;;
37297;SDS011;30517;51.932;4.278;2023-07-20T07:36:37;1.42;;;0.63;;
37297;SDS011;30517;51.932;4.278;2023-07-20T07:39:18;1.73;;;0.60;;
37297;SDS011;30517;51.932;4.278;2023-07-20T07:41:58;2.03;;;0.70;;
37297;SDS011;30517;51.932;4.278;2023-07-20T07:44:39;0.85;;;0.50;;
37297;SDS011;30517;51.932;4.278;2023-07-20T07:47:20;1.65;;;0.68;;
37297;SDS011;30517;51.932;4.278;2023-07-20T07:50:01;0.65;;;0.40;;
37297;SDS011;30517;51.932;4.278;2023-07-20T07:52:43;0.90;;;0.50;;
37297;SDS011;30517;51.932;4.278;2023-07-20T07:55:24;1.10;;;0.63;;
37297;SDS011;30517;51.932;4.278;2023-07-20T07:58:08;0.95;;;0.50;;
37297;SDS011;30517;51.932;4.278;2023-07-20T08:00:49;1.13;;;0.50;;
37297;SDS011;30517;51.932;4.278;2023-07-20T08:03:30;0.93;;;0.40;;
37297;SDS011;30517;51.932;4.278;2023-07-20T08:06:11;1.10;;;0.55;;
37297;SDS011;30517;51.932;4.278;2023-07-20T08:08:52;1.00;;;0.57;;
37297;SDS011;30517;51.932;4.278;2023-07-20T08:11:33;1.05;;;0.50;;
37297;SDS011;30517;51.932;4.278;2023-07-20T08:14:13;1.00;;;0.55;;
37297;SDS011;30517;51.932;4.278;2023-07-20T08:16:55;1.83;;;0.60;;
37297;SDS011;30517;51.932;4.278;2023-07-20T08:19:36;0.50;;;0.30;;
37297;SDS011;30517;51.932;4.278;2023-07-20T08:22:21;1.20;;;0.43;;
37297;SDS011;30517;51.932;4.278;2023-07-20T08:25:02;1.35;;;0.68;;
37297;SDS011;30517;51.932;4.278;2023-07-20T08:27:43;0.52;;;0.40;;
37297;SDS011;30517;51.932;4.278;2023-07-20T08:30:26;0.55;;;0.50;;
37297;SDS011;30517;51.932;4.278;2023-07-20T08:33:06;1.25;;;0.60;;
37297;SDS011;30517;51.932;4.278;2023-07-20T08:35:47;1.20;;;0.63;;
37297;SDS011;30517;51.932;4.278;2023-07-20T08:38:29;0.60;;;0.38;;
37297;SDS011;30517;51.932;4.278;2023-07-20T08:41:13;0.73;;;0.40;;
37297;SDS011;30517;51.932;4.278;2023-07-20T08:43:54;1.10;;;0.65;;
37297;SDS011;30517;51.932;4.278;2023-07-20T08:46:38;0.52;;;0.50;;
37297;SDS011;30517;51.932;4.278;2023-07-20T08:49:23;1.00;;;0.50;;
37297;SDS011;30517;51.932;4.278;2023-07-20T08:52:03;1.88;;;0.60;;
37297;SDS011;30517;51.932;4.278;2023-07-20T08:54:45;1.90;;;0.63;;
37297;SDS011;30517;51.932;4.278;2023-07-20T08:57:26;1.45;;;0.70;;
37297;SDS011;30517;51.932;4.278;2023-07-20T09:00:07;2.17;;;0.50;;
37297;SDS011;30517;51.932;4.278;2023-07-20T09:02:53;0.90;;;0.50;;
37297;SDS011;30517;51.932;4.278;2023-07-20T09:05:35;1.35;;;0.50;;
37297;SDS011;30517;51.932;4.278;2023-07-20T09:08:16;0.73;;;0.50;;
37297;SDS011;30517;51.932;4.278;2023-07-20T09:10:56;0.47;;;0.40;;
37297;SDS011;30517;51.932;4.278;2023-07-20T09:13:37;0.52;;;0.40;;
37297;SDS011;30517;51.932;4.278;2023-07-20T09:16:18;0.98;;;0.63;;
37297;SDS011;30517;51.932;4.278;2023-07-20T09:18:59;1.73;;;0.60;;
37297;SDS011;30517;51.932;4.278;2023-07-20T09:21:47;2.20;;;0.80;;
37297;SDS011;30517;51.932;4.278;2023-07-20T09:24:29;0.90;;;0.60;;
37297;SDS011;30517;51.932;4.278;2023-07-20T09:27:10;0.57;;;0.50;;
37297;SDS011;30517;51.932;4.278;2023-07-20T09:29:52;1.95;;;0.60;;
37297;SDS011;30517;51.932;4.278;2023-07-20T09:32:43;0.73;;;0.40;;
37297;SDS011;30517;51.932;4.278;2023-07-20T09:35:26;2.00;;;0.60;;
37297;SDS011;30517;51.932;4.278;2023-07-20T09:38:06;1.40;;;0.60;;
37297;SDS011;30517;51.932;4.278;2023-07-20T09:40:50;0.68;;;0.50;;
37297;SDS011;30517;51.932;4.278;2023-07-20T09:43:34;0.43;;;0.43;;
37297;SDS011;30517;51.932;4.278;2023-07-20T09:46:15;1.13;;;0.50;;
37297;SDS011;30517;51.932;4.278;2023-07-20T09:48:57;1.10;;;0.60;;
37297;SDS011;30517;51.932;4.278;2023-07-20T09:51:38;2.28;;;0.73;;
37297;SDS011;30517;51.932;4.278;2023-07-20T09:54:19;1.42;;;0.60;;
37297;SDS011;30517;51.932;4.278;2023-07-20T09:57:03;0.85;;;0.50;;
37297;SDS011;30517;51.932;4.278;2023-07-20T09:59:44;1.60;;;0.52;;
37297;SDS011;30517;51.932;4.278;2023-07-20T10:02:27;0.75;;;0.50;;
37297;SDS011;30517;51.932;4.278;2023-07-20T10:05:13;1.52;;;0.57;;
37297;SDS011;30517;51.932;4.278;2023-07-20T10:07:55;1.58;;;0.60;;
37297;SDS011;30517;51.932;4.278;2023-07-20T10:10:38;0.70;;;0.50;;
37297;SDS011;30517;51.932;4.278;2023-07-20T10:13:26;0.95;;;0.50;;
37297;SDS011;30517;51.932;4.278;2023-07-20T10:16:11;1.02;;;0.50;;
37297;SDS011;30517;51.932;4.278;2023-07-20T10:19:20;0.70;;;0.60;;
37297;SDS011;30517;51.932;4.278;2023-07-20T10:22:20;0.90;;;0.60;;
37297;SDS011;30517;51.932;4.278;2023-07-20T10:25:09;2.28;;;0.70;;
37297;SDS011;30517;51.932;4.278;2023-07-20T10:27:50;1.20;;;0.60;;
37297;SDS011;30517;51.932;4.278;2023-07-20T10:30:31;0.98;;;0.40;;
37297;SDS011;30517;51.932;4.278;2023-07-20T10:33:16;0.77;;;0.63;;
37297;SDS011;30517;51.932;4.278;2023-07-20T10:36:03;1.35;;;0.65;;
37297;SDS011;30517;51.932;4.278;2023-07-20T10:41:29;1.95;;;0.60;;
37297;SDS011;30517;51.932;4.278;2023-07-20T10:44:12;0.60;;;0.50;;
37297;SDS011;30517;51.932;4.278;2023-07-20T10:46:58;1.05;;;0.60;;
37297;SDS011;30517;51.932;4.278;2023-07-20T10:49:57;2.05;;;0.70;;
37297;SDS011;30517;51.932;4.278;2023-07-20T10:52:40;1.02;;;0.63;;
37297;SDS011;30517;51.932;4.278;2023-07-20T10:55:21;1.60;;;0.77;;
37297;SDS011;30517;51.932;4.278;2023-07-20T10:58:09;1.05;;;0.60;;
37297;SDS011;30517;51.932;4.278;2023-07-20T11:01:01;1.60;;;0.80;;
37297;SDS011;30517;51.932;4.278;2023-07-20T11:03:48;1.27;;;0.65;;
37297;SDS011;30517;51.932;4.278;2023-07-20T11:06:30;1.02;;;0.75;;
37297;SDS011;30517;51.932;4.278;2023-07-20T11:09:13;1.08;;;0.60;;
37297;SDS011;30517;51.932;4.278;2023-07-20T11:12:08;1.27;;;0.60;;
37297;SDS011;30517;51.932;4.278;2023-07-20T11:14:54;0.88;;;0.70;;
37297;SDS011;30517;51.932;4.278;2023-07-20T11:17:36;1.33;;;0.65;;
37297;SDS011;30517;51.932;4.278;2023-07-20T11:20:18;1.17;;;0.60;;
37297;SDS011;30517;51.932;4.278;2023-07-20T11:23:01;1.60;;;0.80;;
37297;SDS011;30517;51.932;4.278;2023-07-20T11:25:42;1.10;;;0.57;;
37297;SDS011;30517;51.932;4.278;2023-07-20T11:28:23;0.95;;;0.60;;
37297;SDS011;30517;51.932;4.278;2023-07-20T11:31:04;1.23;;;0.55;;
37297;SDS011;30517;51.932;4.278;2023-07-20T11:33:45;1.33;;;0.65;;
37297;SDS011;30517;51.932;4.278;2023-07-20T11:36:26;1.08;;;0.60;;
37297;SDS011;30517;51.932;4.278;2023-07-20T11:39:13;1.08;;;0.70;;
37297;SDS011;30517;51.932;4.278;2023-07-20T11:41:56;1.17;;;0.70;;
37297;SDS011;30517;51.932;4.278;2023-07-20T11:44:37;1.92;;;0.90;;
37297;SDS011;30517;51.932;4.278;2023-07-20T11:47:18;1.92;;;0.60;;
37297;SDS011;30517;51.932;4.278;2023-07-20T11:50:02;1.48;;;0.60;;
37297;SDS011;30517;51.932;4.278;2023-07-20T11:52:44;1.42;;;0.77;;
37297;SDS011;30517;51.932;4.278;2023-07-20T11:55:25;1.10;;;0.68;;
37297;SDS011;30517;51.932;4.278;2023-07-20T11:58:07;1.52;;;0.63;;
37297;SDS011;30517;51.932;4.278;2023-07-20T12:00:49;0.85;;;0.60;;
37297;SDS011;30517;51.932;4.278;2023-07-20T12:03:29;1.92;;;0.70;;
37297;SDS011;30517;51.932;4.278;2023-07-20T12:06:10;0.40;;;0.40;;
37297;SDS011;30517;51.932;4.278;2023-07-20T12:08:54;0.80;;;0.60;;
37297;SDS011;30517;51.932;4.278;2023-07-20T12:11:38;0.95;;;0.55;;
37297;SDS011;30517;51.932;4.278;2023-07-20T12:14:19;1.23;;;0.60;;
37297;SDS011;30517;51.932;4.278;2023-07-20T12:17:00;2.40;;;0.70;;
37297;SDS011;30517;51.932;4.278;2023-07-20T12:19:41;1.40;;;0.80;;
37297;SDS011;30517;51.932;4.278;2023-07-20T12:22:22;1.88;;;0.90;;
37297;SDS011;30517;51.932;4.278;2023-07-20T12:25:05;0.85;;;0.70;;
37297;SDS011;30517;51.932;4.278;2023-07-20T12:27:47;2.05;;;0.70;;
37297;SDS011;30517;51.932;4.278;2023-07-20T12:30:28;1.70;;;0.75;;
37297;SDS011;30517;51.932;4.278;2023-07-20T12:33:09;2.25;;;0.63;;
37297;SDS011;30517;51.932;4.278;2023-07-20T12:35:57;1.77;;;0.75;;
37297;SDS011;30517;51.932;4.278;2023-07-20T12:38:39;2.92;;;0.60;;
37297;SDS011;30517;51.932;4.278;2023-07-20T12:41:21;1.27;;;0.73;;
37297;SDS011;30517;51.932;4.278;2023-07-20T12:44:02;1.27;;;0.70;;
37297;SDS011;30517;51.932;4.278;2023-07-20T12:46:43;1.38;;;0.75;;
37297;SDS011;30517;51.932;4.278;2023-07-20T12:49:24;1.33;;;0.80;;
37297;SDS011;30517;51.932;4.278;2023-07-20T12:52:05;1.90;;;0.75;;
37297;SDS011;30517;51.932;4.278;2023-07-20T12:54:46;1.50;;;0.80;;
37297;SDS011;30517;51.932;4.278;2023-07-20T12:57:27;2.15;;;0.77;;
37297;SDS011;30517;51.932;4.278;2023-07-20T13:00:09;1.73;;;0.80;;
37297;SDS011;30517;51.932;4.278;2023-07-20T13:02:54;1.58;;;0.70;;
37297;SDS011;30517;51.932;4.278;2023-07-20T13:05:35;1.77;;;0.80;;
37297;SDS011;30517;51.932;4.278;2023-07-20T13:08:16;1.92;;;0.80;;
37297;SDS011;30517;51.932;4.278;2023-07-20T13:10:57;1.08;;;0.70;;
37297;SDS011;30517;51.932;4.278;2023-07-20T13:13:40;0.90;;;0.68;;
37297;SDS011;30517;51.932;4.278;2023-07-20T13:16:21;1.65;;;0.65;;
37297;SDS011;30517;51.932;4.278;2023-07-20T13:19:02;1.35;;;0.63;;
37297;SDS011;30517;51.932;4.278;2023-07-20T13:21:43;2.58;;;0.82;;
37297;SDS011;30517;51.932;4.278;2023-07-20T13:24:24;1.25;;;0.63;;
37297;SDS011;30517;51.932;4.278;2023-07-20T13:27:04;2.13;;;0.85;;
37297;SDS011;30517;51.932;4.278;2023-07-20T13:29:45;1.65;;;0.80;;
37297;SDS011;30517;51.932;4.278;2023-07-20T13:32:26;1.52;;;0.80;;
37297;SDS011;30517;51.932;4.278;2023-07-20T13:35:07;1.73;;;0.70;;
37297;SDS011;30517;51.932;4.278;2023-07-20T13:37:48;1.50;;;0.73;;
37297;SDS011;30517;51.932;4.278;2023-07-20T13:40:29;1.58;;;0.60;;
37297;SDS011;30517;51.932;4.278;2023-07-20T13:43:10;1.13;;;0.50;;
37297;SDS011;30517;51.932;4.278;2023-07-20T13:45:51;2.63;;;0.70;;
37297;SDS011;30517;51.932;4.278;2023-07-20T13:48:32;1.00;;;0.63;;
37297;SDS011;30517;51.932;4.278;2023-07-20T13:51:13;1.48;;;0.60;;
37297;SDS011;30517;51.932;4.278;2023-07-20T13:53:54;1.63;;;0.70;;
37297;SDS011;30517;51.932;4.278;2023-07-20T13:56:35;0.95;;;0.55;;
37297;SDS011;30517;51.932;4.278;2023-07-20T13:59:16;0.70;;;0.50;;
37297;SDS011;30517;51.932;4.278;2023-07-20T14:01:58;0.60;;;0.50;;
37297;SDS011;30517;51.932;4.278;2023-07-20T14:04:39;0.82;;;0.57;;
37297;SDS011;30517;51.932;4.278;2023-07-20T14:07:22;1.83;;;0.75;;
37297;SDS011;30517;51.932;4.278;2023-07-20T14:10:03;1.40;;;0.73;;
37297;SDS011;30517;51.932;4.278;2023-07-20T14:12:45;0.80;;;0.40;;
37297;SDS011;30517;51.932;4.278;2023-07-20T14:15:25;1.20;;;0.65;;
37297;SDS011;30517;51.932;4.278;2023-07-20T14:18:06;1.08;;;0.50;;
37297;SDS011;30517;51.932;4.278;2023-07-20T14:20:47;1.00;;;0.60;;
37297;SDS011;30517;51.932;4.278;2023-07-20T14:23:28;0.47;;;0.40;;
37297;SDS011;30517;51.932;4.278;2023-07-20T14:26:09;1.98;;;0.70;;
37297;SDS011;30517;51.932;4.278;2023-07-20T14:28:50;0.82;;;0.40;;
37297;SDS011;30517;51.932;4.278;2023-07-20T14:31:31;1.35;;;0.60;;
37297;SDS011;30517;51.932;4.278;2023-07-20T14:34:12;1.30;;;0.63;;
37297;SDS011;30517;51.932;4.278;2023-07-20T14:36:54;1.10;;;0.57;;
37297;SDS011;30517;51.932;4.278;2023-07-20T14:39:35;1.35;;;0.60;;
37297;SDS011;30517;51.932;4.278;2023-07-20T14:42:16;1.33;;;0.60;;
37297;SDS011;30517;51.932;4.278;2023-07-20T14:44:58;1.48;;;0.50;;
37297;SDS011;30517;51.932;4.278;2023-07-20T14:47:39;1.35;;;0.52;;
37297;SDS011;30517;51.932;4.278;2023-07-20T14:50:20;1.10;;;0.60;;
37297;SDS011;30517;51.932;4.278;2023-07-20T14:53:01;2.22;;;0.80;;
37297;SDS011;30517;51.932;4.278;2023-07-20T14:55:43;1.17;;;0.40;;
37297;SDS011;30517;51.932;4.278;2023-07-20T14:58:24;0.95;;;0.50;;
37297;SDS011;30517;51.932;4.278;2023-07-20T15:01:05;0.50;;;0.45;;
37297;SDS011;30517;51.932;4.278;2023-07-20T15:03:45;0.60;;;0.47;;
37297;SDS011;30517;51.932;4.278;2023-07-20T15:06:26;1.75;;;0.68;;
37297;SDS011;30517;51.932;4.278;2023-07-20T15:09:13;0.82;;;0.45;;
37297;SDS011;30517;51.932;4.278;2023-07-20T15:11:57;0.43;;;0.32;;
37297;SDS011;30517;51.932;4.278;2023-07-20T15:14:42;1.75;;;0.70;;
37297;SDS011;30517;51.932;4.278;2023-07-20T15:17:23;2.30;;;0.50;;
37297;SDS011;30517;51.932;4.278;2023-07-20T15:20:05;1.02;;;0.40;;
37297;SDS011;30517;51.932;4.278;2023-07-20T15:22:47;0.47;;;0.40;;
37297;SDS011;30517;51.932;4.278;2023-07-20T15:25:28;0.73;;;0.40;;
37297;SDS011;30517;51.932;4.278;2023-07-20T15:28:09;1.30;;;0.50;;
37297;SDS011;30517;51.932;4.278;2023-07-20T15:30:49;1.75;;;0.60;;
37297;SDS011;30517;51.932;4.278;2023-07-20T15:33:31;1.30;;;0.50;;
37297;SDS011;30517;51.932;4.278;2023-07-20T15:36:12;1.63;;;0.60;;
37297;SDS011;30517;51.932;4.278;2023-07-20T15:38:53;1.98;;;0.80;;
37297;SDS011;30517;51.932;4.278;2023-07-20T15:41:34;1.55;;;0.50;;
37297;SDS011;30517;51.932;4.278;2023-07-20T15:44:15;1.45;;;0.65;;
37297;SDS011;30517;51.932;4.278;2023-07-20T15:46:56;1.42;;;0.68;;
37297;SDS011;30517;51.932;4.278;2023-07-20T15:49:37;0.77;;;0.40;;
37297;SDS011;30517;51.932;4.278;2023-07-20T15:52:18;2.72;;;0.75;;
37297;SDS011;30517;51.932;4.278;2023-07-20T15:54:58;0.88;;;0.57;;
37297;SDS011;30517;51.932;4.278;2023-07-20T15:57:39;0.75;;;0.60;;
37297;SDS011;30517;51.932;4.278;2023-07-20T16:00:20;0.40;;;0.40;;
37297;SDS011;30517;51.932;4.278;2023-07-20T16:03:01;0.80;;;0.45;;
37297;SDS011;30517;51.932;4.278;2023-07-20T16:05:42;0.75;;;0.45;;
37297;SDS011;30517;51.932;4.278;2023-07-20T16:08:23;1.10;;;0.50;;
37297;SDS011;30517;51.932;4.278;2023-07-20T16:11:04;1.05;;;0.50;;
37297;SDS011;30517;51.932;4.278;2023-07-20T16:13:45;1.48;;;0.60;;
37297;SDS011;30517;51.932;4.278;2023-07-20T16:16:26;1.13;;;0.60;;
37297;SDS011;30517;51.932;4.278;2023-07-20T16:19:07;0.73;;;0.32;;
37297;SDS011;30517;51.932;4.278;2023-07-20T16:21:48;1.13;;;0.63;;
37297;SDS011;30517;51.932;4.278;2023-07-20T16:24:29;0.35;;;0.32;;
37297;SDS011;30517;51.932;4.278;2023-07-20T16:27:11;0.50;;;0.40;;
37297;SDS011;30517;51.932;4.278;2023-07-20T16:29:52;1.05;;;0.60;;
37297;SDS011;30517;51.932;4.278;2023-07-20T16:32:32;1.15;;;0.60;;
37297;SDS011;30517;51.932;4.278;2023-07-20T16:35:14;0.90;;;0.68;;